FAUT

Details ICAO FAUT (UTT)
Name MTHATHA
Region South Africa
Timezone Africa/Johannesburg (UTC+2.0)
Plans Departing 5
Arriving 8
Stats Elevation 2,400 ft / 732 m (AMSL)
Location -31.546270° 28.675151°
Runways 2
Magnetic Variation 27.002° W
Sunrise 2018-05-24 04:53:02 UTC / 2018-05-24 06:53:02 Local
Sunset 2018-05-24 15:14:05 UTC / 2018-05-24 17:14:05 Local
Advertisement - Login to hide

Runways

ID Width Length Bearing (true) Bearing (mag) Surface Threshold Offset Overrun Length
09 98 ft / 30 m 5,018 ft / 1,529 m 68.82° 95.82° Dirt 0 ft / 0 m 0 ft / 0 m
14 75 ft / 23 m 6,518 ft / 1,987 m 113.54° 140.54° Asphalt 0 ft / 0 m 0 ft / 0 m
27 98 ft / 30 m 5,018 ft / 1,529 m 248.81° 275.81° Dirt 0 ft / 0 m 0 ft / 0 m
32 75 ft / 23 m 6,518 ft / 1,987 m 293.53° 320.53° Asphalt 0 ft / 0 m 0 ft / 0 m

Map

Weather


0- 5 10 15 20 25 30 35+ Temperature / ° C

Clouds and Precipitation
Forecast for 2018-05-24 18:00 UTC. Updated 3 hours ago

Ground ~20,000 ft ~40,000 ft Winds

METAR

FAUT 242000Z AUTO 13002KT //// // ////// 14/14 Q1021

TAF

Not found

Frequencies

Tower 121.30 MHz MATANZIMA TWR
Warning: Do not use this data for real-world aviation or navigation. No guarantee of current accuracy is given.